Repto Macias, Puerto Rico
Current Conditions -  °F | °C
As of 9:50 AM on Thursday 18 Dec 2014 (Local Time) from TJBQ Reporting Station
Overcast Overcast  
Wind Chill: 75°   Ceiling: 3300
Heat Index: 75°   Visibility: 10mi
Dew Point: 66°   Wind: 16mph
Humidity: 73%   Direction: 70°ENE
Pressure: 30.08"   Gusts: 26mph
Location:  18.2038°N, 67.1453°W
Report Text: TJBQ 181350Z 07014G23KT 10SM BKN033 OVC038 24/19 A3008 RMK RWY08 ATIS T
Loading
Personal Weather Stations






























Interactive Weather Map New forecast layout! Learn more

10-Day Weather Forecast

Advertisements
Track Severe Weather on mobile